Barnes Corners, New York
Current Conditions -  °F | °C
As of 8:58 AM on Sunday 21 Dec 2014 (Local Time) from KGTB Reporting Station
Overcast Overcast  
Wind Chill: 24°   Ceiling: 2600
Heat Index: 24°   Visibility: 10mi
Dew Point: 19°   Wind: 2mph
Humidity: 79%   Direction: 110°ESE
Pressure: 30.3"   Gusts: NA
Location:  43.8415°N, 75.7057°W
Report Text: KGTB 211358Z AUTO 11002KT 10SM OVC026 M04/M07 A3030 RMK AO2 SLP272 T10421074
Loading
Personal Weather Stations






























Interactive Weather Map New forecast layout! Learn more

10-Day Weather Forecast

Advertisements
Track Severe Weather on mobile